Time;durP1;ratioP1;P1;durP2;ratioP2;P2;SDS_P1;SDS_P2;PMS_P1;PMS_P2;Temp;Humidity;BMP_temperature;BMP_pressure;BME280_temperature;BME280_humidity;BME280_pressure;Samples;Min_cycle;Max_cycle;Signal;HPM_P1;HPM_P2
2023/12/22 00:00:16;;;;;;;;;25.67;23.00;;;;;12.19;71.42;100790.13;4980963;28;45325;-82
2023/12/22 00:02:41;;;;;;;;;18.67;15.00;;;;;12.04;71.22;100773.25;4980325;28;45461;-84
2023/12/22 00:05:09;;;;;;;;;5.67;5.67;;;;;12.16;71.33;100795.66;4989286;28;62783;-82
2023/12/22 00:07:36;;;;;;;;;2.67;2.67;;;;;12.25;70.64;100800.47;4981724;28;45255;-82
2023/12/22 00:10:03;;;;;;;;;1.00;1.00;;;;;12.23;70.90;100797.00;4982386;28;45388;-81
2023/12/22 00:12:28;;;;;;;;;1.00;1.00;;;;;12.23;70.19;100794.34;4998025;27;45469;-82
2023/12/22 00:14:53;;;;;;;;;4.00;2.33;;;;;12.28;70.31;100791.41;4982604;28;45485;-84
2023/12/22 00:17:19;;;;;;;;;5.00;1.33;;;;;12.25;70.40;100784.47;4982569;28;45424;-83
2023/12/22 00:19:44;;;;;;;;;4.00;2.00;;;;;12.25;69.93;100789.78;4986564;28;45405;-83
2023/12/22 00:22:10;;;;;;;;;3.00;3.00;;;;;12.20;69.29;100769.66;5005689;28;45343;-83
2023/12/22 00:24:40;;;;;;;;;3.00;3.00;;;;;12.10;69.41;100756.03;4991440;28;46146;-82
2023/12/22 00:27:09;;;;;;;;;5.00;3.00;;;;;12.16;69.03;100766.34;4986652;28;45341;-81
2023/12/22 00:29:35;;;;;;;;;2.00;2.00;;;;;12.11;68.95;100776.44;4983796;28;45313;-84
2023/12/22 00:32:01;;;;;;;;;3.00;2.00;;;;;11.75;68.46;100732.31;4987693;28;45522;-82
2023/12/22 00:34:30;;;;;;;;;2.00;2.00;;;;;11.90;69.41;100756.34;4996654;28;45223;-89
2023/12/22 00:36:56;;;;;;;;;0.67;0.00;;;;;11.95;68.68;100771.13;5009612;27;44713;-81
2023/12/22 00:39:24;;;;;;;;;1.33;0.00;;;;;11.95;69.00;100783.59;5009970;28;45428;-81
2023/12/22 00:41:50;;;;;;;;;4.33;3.00;;;;;11.90;68.85;100772.34;5011032;28;44899;-81
2023/12/22 00:44:16;;;;;;;;;4.00;2.33;;;;;11.80;68.74;100767.56;5003261;28;46382;-81
2023/12/22 00:46:41;;;;;;;;;3.67;2.67;;;;;11.84;68.71;100762.03;4989809;28;45144;-81
2023/12/22 00:49:07;;;;;;;;;3.33;2.00;;;;;11.79;68.26;100744.53;4988801;28;45331;-81
2023/12/22 00:51:32;;;;;;;;;2.00;2.00;;;;;11.66;68.26;100735.50;5082862;27;45395;-81
2023/12/22 00:53:58;;;;;;;;;5.33;1.67;;;;;11.60;68.35;100732.34;5081084;27;46302;-81
2023/12/22 00:56:24;;;;;;;;;5.33;1.67;;;;;11.74;68.14;100769.69;5079236;28;45319;-81
2023/12/22 00:58:49;;;;;;;;;8.00;2.67;;;;;11.70;67.34;100760.13;5079075;27;45540;-83
2023/12/22 01:01:16;;;;;;;;;2.67;2.67;;;;;11.68;67.35;100757.56;5081308;28;45378;-83
2023/12/22 01:03:41;;;;;;;;;1.67;1.00;;;;;11.72;66.95;100759.13;5081846;27;46524;-81
2023/12/22 01:06:07;;;;;;;;;1.33;1.33;;;;;11.71;66.95;100769.84;5082939;27;59135;-81
2023/12/22 01:08:32;;;;;;;;;3.33;1.67;;;;;11.65;67.19;100755.09;5084046;27;45443;-81
2023/12/22 01:10:58;;;;;;;;;4.00;2.00;;;;;11.77;67.55;100774.84;5085464;27;44821;-81
2023/12/22 01:13:23;;;;;;;;;3.00;1.00;;;;;11.59;67.49;100763.44;5086172;27;45422;-82
2023/12/22 01:15:49;;;;;;;;;2.00;1.00;;;;;11.75;67.78;100800.72;5083532;27;45458;-81
2023/12/22 01:18:15;;;;;;;;;3.00;2.00;;;;;11.65;67.96;100783.53;5087653;27;45402;-81
2023/12/22 01:20:42;;;;;;;;;4.67;1.67;;;;;11.72;67.59;100785.78;5087886;27;45213;-81
2023/12/22 01:23:07;;;;;;;;;3.00;3.00;;;;;11.67;68.11;100760.31;5011855;28;45275;-81
2023/12/22 01:25:34;;;;;;;;;0.00;0.00;;;;;11.61;67.95;100769.53;4994002;28;45415;-82
2023/12/22 01:27:59;;;;;;;;;8.67;2.00;;;;;11.61;67.88;100772.22;4998003;28;45347;-81
2023/12/22 01:30:26;;;;;;;;;5.00;3.00;;;;;11.74;67.96;100783.88;4982739;28;45616;-81
2023/12/22 01:32:51;;;;;;;;;3.33;1.00;;;;;11.68;67.99;100762.91;4984290;27;46556;-82
2023/12/22 01:35:18;;;;;;;;;3.00;1.00;;;;;11.81;67.84;100774.59;4985849;27;45310;-82
2023/12/22 01:37:43;;;;;;;;;11.00;1.33;;;;;11.85;68.01;100782.41;4983958;28;45281;-80
2023/12/22 01:40:09;;;;;;;;;2.00;1.00;;;;;11.91;68.01;100790.06;4985516;28;45315;-82
2023/12/22 01:42:34;;;;;;;;;5.00;1.67;;;;;11.94;68.53;100790.72;4985067;28;45669;-81
2023/12/22 01:45:01;;;;;;;;;5.33;3.00;;;;;11.97;68.47;100782.53;4985123;28;45291;-81
2023/12/22 01:47:27;;;;;;;;;6.00;2.33;;;;;11.98;68.77;100778.06;4986706;28;45387;-82
2023/12/22 01:49:53;;;;;;;;;2.67;2.00;;;;;11.88;68.56;100743.13;4989705;28;45206;-82
2023/12/22 01:52:20;;;;;;;;;5.33;2.00;;;;;11.94;69.11;100763.22;4991187;28;46198;-81
2023/12/22 01:54:45;;;;;;;;;2.33;1.00;;;;;11.89;69.87;100754.66;4994454;28;45093;-82
2023/12/22 01:57:17;;;;;;;;;4.67;2.67;;;;;11.84;70.24;100754.03;5011545;28;45365;-81
2023/12/22 01:59:46;;;;;;;;;2.00;1.00;;;;;11.94;70.62;100768.53;5014119;28;45196;-82
2023/12/22 02:02:14;;;;;;;;;2.00;2.00;;;;;11.90;70.63;100761.69;5008366;27;45554;-82
2023/12/22 02:04:41;;;;;;;;;2.00;2.00;;;;;11.99;70.92;100795.81;5011738;28;45260;-85
2023/12/22 02:07:08;;;;;;;;;3.33;2.00;;;;;12.02;70.99;100803.63;4997560;28;44748;-81
2023/12/22 02:09:34;;;;;;;;;4.00;1.33;;;;;12.03;71.46;100816.00;4988549;28;45198;-81
2023/12/22 02:11:59;;;;;;;;;1.00;1.00;;;;;11.93;71.68;100793.50;4983335;28;46008;-81
2023/12/22 02:14:27;;;;;;;;;3.00;1.67;;;;;11.93;71.37;100789.00;4980366;28;45533;-81
2023/12/22 02:17:22;;;;;;;;;4.00;2.00;;;;;12.05;71.60;100814.09;4983032;28;45354;-82
2023/12/22 02:19:48;;;;;;;;;2.00;2.00;;;;;11.89;71.50;100782.16;4985566;28;45338;-80
2023/12/22 02:22:16;;;;;;;;;3.00;1.00;;;;;12.03;71.65;100816.00;4988102;28;46279;-81
2023/12/22 02:24:42;;;;;;;;;2.00;2.00;;;;;11.77;71.83;100789.03;4987451;28;45291;-81
2023/12/22 02:27:45;;;;;;;;;1.00;1.00;;;;;11.91;72.27;100827.38;5002526;28;45498;-82
2023/12/22 02:30:32;;;;;;;;;0.00;0.00;;;;;11.83;72.40;100830.47;5004615;27;45295;-82
2023/12/22 02:33:03;;;;;;;;;1.00;1.00;;;;;11.80;72.44;100822.66;5011724;28;48140;-82
2023/12/22 02:35:30;;;;;;;;;3.00;3.00;;;;;11.69;72.68;100817.91;5008310;28;44838;-81
2023/12/22 02:38:00;;;;;;;;;1.67;1.67;;;;;11.60;72.27;100815.78;4998274;27;45432;-83
2023/12/22 02:40:29;;;;;;;;;2.00;1.00;;;;;11.60;72.76;100821.09;4995946;28;45364;-82
2023/12/22 02:42:55;;;;;;;;;2.00;2.00;;;;;11.59;73.02;100822.06;5007086;27;46133;-81
2023/12/22 02:45:21;;;;;;;;;3.33;2.33;;;;;11.45;72.91;100803.31;5012854;28;45178;-81
2023/12/22 02:47:49;;;;;;;;;6.67;1.67;;;;;11.49;73.09;100819.03;4996882;27;45211;-81
2023/12/22 02:50:17;;;;;;;;;6.00;3.00;;;;;11.59;72.70;100827.38;4996277;28;45218;-81
2023/12/22 02:52:45;;;;;;;;;4.33;3.00;;;;;11.58;72.94;100822.97;4989826;28;46346;-82
2023/12/22 02:55:12;;;;;;;;;2.67;1.00;;;;;11.66;72.63;100825.22;4990173;28;45287;-82
2023/12/22 02:57:47;;;;;;;;;5.67;2.33;;;;;11.71;72.35;100823.13;4992134;27;45211;-82
2023/12/22 03:00:15;;;;;;;;;4.00;2.00;;;;;11.79;72.15;100829.78;4987377;28;45532;-82
2023/12/22 03:02:41;;;;;;;;;9.00;3.00;;;;;11.77;71.88;100815.66;4987924;28;45014;-81
2023/12/22 03:05:06;;;;;;;;;3.00;2.00;;;;;11.80;72.21;100820.84;4990792;28;64940;-81
2023/12/22 03:07:33;;;;;;;;;2.00;2.00;;;;;11.85;71.82;100806.38;4990075;28;46341;-81
2023/12/22 03:09:59;;;;;;;;;2.00;2.00;;;;;11.79;71.83;100792.47;4990714;28;45348;-80
2023/12/22 03:12:34;;;;;;;;;3.67;1.00;;;;;11.81;71.78;100798.56;5006429;28;45312;-81
2023/12/22 03:14:59;;;;;;;;;4.00;1.00;;;;;11.67;71.59;100769.19;5008161;28;45266;-81
2023/12/22 03:17:24;;;;;;;;;5.00;2.00;;;;;11.88;71.50;100800.91;4990158;28;45240;-81
2023/12/22 03:19:50;;;;;;;;;2.00;2.00;;;;;11.83;71.62;100785.16;4988259;28;45315;-82
2023/12/22 03:22:21;;;;;;;;;3.67;3.67;;;;;11.86;71.01;100798.34;4986545;28;47155;-83
2023/12/22 03:24:47;;;;;;;;;3.00;1.00;;;;;11.92;70.73;100792.63;5004978;27;44817;-82
2023/12/22 03:27:16;;;;;;;;;7.67;2.33;;;;;11.92;70.27;100797.09;5003716;28;44935;-83
2023/12/22 03:29:42;;;;;;;;;3.00;3.00;;;;;11.88;70.67;100796.44;4986231;28;45180;-82
2023/12/22 03:32:07;;;;;;;;;3.00;2.00;;;;;11.93;70.33;100796.16;4987201;28;46294;-85
2023/12/22 03:34:34;;;;;;;;;6.00;2.00;;;;;11.92;70.44;100802.44;4987186;28;56258;-83
2023/12/22 03:37:06;;;;;;;;;2.00;2.00;;;;;11.86;70.42;100802.81;4993602;28;45413;-83
2023/12/22 03:39:35;;;;;;;;;2.33;1.00;;;;;11.95;71.02;100796.91;5001273;27;44827;-82
2023/12/22 03:42:02;;;;;;;;;4.33;1.00;;;;;11.98;70.31;100796.72;4989576;28;45215;-81
2023/12/22 03:44:27;;;;;;;;;2.00;2.00;;;;;11.99;70.19;100794.00;4991073;28;44765;-83
2023/12/22 03:46:53;;;;;;;;;1.00;1.00;;;;;11.91;70.44;100790.06;5002408;28;45745;-82
2023/12/22 03:49:19;;;;;;;;;2.00;2.00;;;;;12.03;70.60;100810.66;4995804;28;51438;-84
2023/12/22 03:51:44;;;;;;;;;2.00;2.00;;;;;12.04;70.79;100802.56;4996173;28;46168;-82
2023/12/22 03:54:10;;;;;;;;;4.00;2.00;;;;;11.97;70.65;100787.88;4981041;28;45333;-82
2023/12/22 03:56:35;;;;;;;;;2.00;2.00;;;;;11.94;71.07;100793.41;4981234;28;45301;-81
2023/12/22 03:59:00;;;;;;;;;5.00;1.33;;;;;11.93;71.25;100799.69;4981404;28;45330;-82
2023/12/22 04:01:26;;;;;;;;;4.00;1.00;;;;;11.87;71.64;100789.38;4980972;28;66110;-86
2023/12/22 04:03:52;;;;;;;;;1.00;1.00;;;;;11.91;71.71;100806.06;4982191;28;55383;-88
2023/12/22 04:06:18;;;;;;;;;3.00;1.33;;;;;11.95;71.56;100799.59;4982419;28;45235;-83
2023/12/22 04:08:50;;;;;;;;;8.00;1.00;;;;;12.01;71.47;100812.56;4984207;28;45438;-81
2023/12/22 04:11:16;;;;;;;;;2.67;1.33;;;;;12.07;71.51;100818.38;4985381;27;46112;-83
2023/12/22 04:13:41;;;;;;;;;3.00;1.00;;;;;12.06;71.39;100806.00;4981687;28;45180;-82
2023/12/22 04:16:08;;;;;;;;;3.00;1.00;;;;;12.07;71.76;100801.53;4978546;28;62493;-81
2023/12/22 04:18:33;;;;;;;;;3.67;2.00;;;;;12.17;71.78;100808.03;4980177;28;45293;-85
2023/12/22 04:20:58;;;;;;;;;3.33;1.00;;;;;12.20;72.03;100797.19;4977931;28;64635;-82
2023/12/22 04:23:24;;;;;;;;;2.00;1.00;;;;;12.19;72.79;100795.47;4979382;28;45213;-81
2023/12/22 04:25:52;;;;;;;;;0.00;0.00;;;;;12.10;76.24;100814.66;4981447;28;51970;-83
2023/12/22 04:28:19;;;;;;;;;1.00;1.00;;;;;11.99;78.82;100804.66;4981425;28;45596;-81
2023/12/22 04:30:44;;;;;;;;;1.67;0.00;;;;;11.91;79.05;100795.38;4979369;28;45317;-82
2023/12/22 04:33:09;;;;;;;;;0.67;0.00;;;;;11.85;79.96;100790.41;4977463;28;58810;-82
2023/12/22 04:35:35;;;;;;;;;0.00;0.00;;;;;11.86;80.01;100809.00;4978810;28;45395;-82
2023/12/22 04:38:03;;;;;;;;;1.00;1.00;;;;;11.79;81.88;100803.16;4979595;28;45526;-83
2023/12/22 04:40:30;;;;;;;;;5.00;0.00;;;;;11.77;83.45;100810.34;4982150;28;45557;-82
2023/12/22 04:42:55;;;;;;;;;0.00;0.00;;;;;11.67;84.99;100814.47;4997027;28;51726;-84
2023/12/22 04:45:21;;;;;;;;;0.00;0.00;;;;;11.62;85.00;100815.69;4981073;28;45207;-83
2023/12/22 04:47:46;;;;;;;;;0.00;0.00;;;;;11.64;85.26;100821.78;4983001;28;60611;-83
2023/12/22 04:50:11;;;;;;;;;0.00;0.00;;;;;11.64;85.34;100813.78;4997075;28;45668;-83
2023/12/22 04:52:36;;;;;;;;;1.00;1.00;;;;;11.64;85.69;100801.31;4996487;28;64895;-83
2023/12/22 04:55:06;;;;;;;;;0.00;0.00;;;;;11.61;85.96;100809.50;4985804;27;52468;-82
2023/12/22 04:57:33;;;;;;;;;0.00;0.00;;;;;11.58;85.90;100804.31;4979522;28;45283;-82
2023/12/22 04:59:59;;;;;;;;;7.33;1.00;;;;;11.53;85.86;100793.09;4979653;28;45498;-82
2023/12/22 05:02:26;;;;;;;;;3.00;2.00;;;;;11.55;85.84;100795.66;4979833;28;45773;-82
2023/12/22 05:04:51;;;;;;;;;1.67;1.00;;;;;11.60;85.64;100796.28;4979771;28;45780;-83
2023/12/22 05:07:16;;;;;;;;;1.33;1.00;;;;;11.66;84.67;100798.56;4978712;28;45356;-82
2023/12/22 05:09:42;;;;;;;;;2.33;0.00;;;;;11.69;85.39;100811.72;4980030;28;63194;-82
2023/12/22 05:12:07;;;;;;;;;10.33;1.00;;;;;11.68;84.45;100788.69;4979780;28;45326;-82
2023/12/22 05:14:33;;;;;;;;;2.67;1.00;;;;;11.71;84.14;100794.69;4979542;28;45724;-83
2023/12/22 05:16:58;;;;;;;;;0.67;0.67;;;;;11.81;83.47;100809.22;4980387;28;45711;-82
2023/12/22 05:19:23;;;;;;;;;2.00;2.00;;;;;11.77;83.47;100813.00;4978828;28;45464;-85
2023/12/22 05:21:49;;;;;;;;;0.33;0.33;;;;;11.85;83.73;100814.38;4978663;28;45512;-83
2023/12/22 05:24:16;;;;;;;;;4.67;1.00;;;;;11.86;84.04;100819.66;4978615;28;45408;-82
2023/12/22 05:26:46;;;;;;;;;2.33;2.00;;;;;11.88;83.75;100809.75;4978127;28;45234;-82
2023/12/22 05:29:12;;;;;;;;;1.00;1.00;;;;;11.81;83.15;100809.22;4978545;28;45719;-82
2023/12/22 05:31:41;;;;;;;;;1.00;1.00;;;;;11.77;83.38;100793.50;4988554;28;45769;-82
2023/12/22 05:34:10;;;;;;;;;1.00;1.00;;;;;11.85;83.21;100799.28;5002065;28;44685;-85
2023/12/22 05:36:36;;;;;;;;;0.67;0.67;;;;;11.83;83.33;100790.50;5004015;28;45010;-83
2023/12/22 05:39:01;;;;;;;;;1.00;1.00;;;;;11.84;82.67;100796.69;5023013;27;48234;-82
2023/12/22 05:41:28;;;;;;;;;2.00;1.00;;;;;11.70;82.76;100792.13;5006126;28;45365;-82
2023/12/22 05:43:54;;;;;;;;;2.67;0.67;;;;;11.79;83.08;100805.81;5019415;28;45454;-82
2023/12/22 05:46:19;;;;;;;;;1.00;1.00;;;;;11.79;83.09;100792.47;4990990;28;45522;-82
2023/12/22 05:48:44;;;;;;;;;3.67;1.00;;;;;11.81;82.64;100805.72;4985513;28;46027;-85
2023/12/22 05:51:13;;;;;;;;;1.00;1.00;;;;;11.85;82.20;100799.28;4983700;28;45281;-82
2023/12/22 05:53:42;;;;;;;;;0.00;0.00;;;;;11.87;81.87;100794.72;4997142;27;45346;-81
2023/12/22 05:56:21;;;;;;;;;0.67;0.67;;;;;11.85;82.03;100785.97;4982502;27;45443;-82
2023/12/22 05:58:47;;;;;;;;;1.00;1.00;;;;;11.88;82.29;100804.44;4985821;28;46323;-83
2023/12/22 06:01:19;;;;;;;;;2.67;0.00;;;;;11.80;82.25;100778.22;4985094;28;45252;-82
2023/12/22 06:03:46;;;;;;;;;2.00;0.00;;;;;11.84;81.74;100794.88;4985875;28;45472;-83
2023/12/22 06:06:12;;;;;;;;;0.00;0.00;;;;;11.93;81.75;100809.47;4988027;27;44895;-83
2023/12/22 06:08:42;;;;;;;;;1.67;0.00;;;;;11.94;81.98;100806.72;4989309;28;45184;-82
2023/12/22 06:11:08;;;;;;;;;2.00;0.00;;;;;11.96;82.03;100807.47;4987438;28;45309;-82
2023/12/22 06:13:33;;;;;;;;;1.33;1.00;;;;;11.90;82.06;100793.66;4985193;28;45425;-83
2023/12/22 06:16:00;;;;;;;;;1.00;0.00;;;;;11.91;81.90;100795.38;4983049;28;45316;-81
2023/12/22 06:18:34;;;;;;;;;0.00;0.00;;;;;12.02;81.52;100806.28;4981761;28;45759;-81
2023/12/22 06:20:59;;;;;;;;;4.00;3.00;;;;;12.07;81.83;100812.19;4983916;28;51296;-82
2023/12/22 06:23:27;;;;;;;;;0.00;0.00;;;;;12.01;81.91;100792.09;4985868;28;45347;-81
2023/12/22 06:25:53;;;;;;;;;2.00;0.00;;;;;12.04;82.31;100815.91;4996894;27;45556;-86
2023/12/22 06:28:18;;;;;;;;;0.00;0.00;;;;;12.07;82.22;100822.84;5000717;27;46749;-83
2023/12/22 06:30:44;;;;;;;;;0.00;0.00;;;;;12.09;81.82;100818.28;4985613;28;45330;-82
2023/12/22 06:33:09;;;;;;;;;0.67;0.67;;;;;12.07;82.03;100817.53;4981440;28;45322;-84
2023/12/22 06:35:35;;;;;;;;;0.00;0.00;;;;;12.02;81.80;100811.63;4979355;28;45481;-87
2023/12/22 06:38:03;;;;;;;;;0.00;0.00;;;;;11.69;82.19;100759.28;4983525;28;46025;-86
2023/12/22 06:40:29;;;;;;;;;0.00;0.00;;;;;11.85;82.64;100787.72;4988410;28;45520;-86
2023/12/22 06:42:54;;;;;;;;;0.00;0.00;;;;;11.92;82.40;100794.44;4995929;28;45493;-84
2023/12/22 06:45:20;;;;;;;;;0.00;0.00;;;;;11.97;82.17;100811.88;4996173;27;45459;-85
2023/12/22 06:47:45;;;;;;;;;0.00;0.00;;;;;11.97;82.64;100806.53;5001849;28;46100;-85
2023/12/22 06:50:11;;;;;;;;;0.00;0.00;;;;;11.98;82.33;100802.06;5002955;27;45366;-86
2023/12/22 06:52:36;;;;;;;;;2.00;0.00;;;;;11.82;82.65;100770.97;4997595;28;45707;-84
2023/12/22 06:55:02;;;;;;;;;1.33;0.00;;;;;11.89;82.69;100765.31;4992325;28;45383;-87
2023/12/22 06:57:27;;;;;;;;;0.00;0.00;;;;;11.93;81.92;100773.03;4985571;28;45846;-87
2023/12/22 06:59:53;;;;;;;;;0.00;0.00;;;;;12.04;82.18;100794.56;4995729;27;45217;-87
2023/12/22 07:02:18;;;;;;;;;1.00;0.00;;;;;11.72;82.42;100740.47;4994581;27;45459;-87
2023/12/22 07:05:09;;;;;;;;;0.00;0.00;;;;;12.04;82.72;100793.72;4992792;28;45536;-85
2023/12/22 07:07:35;;;;;;;;;1.33;0.00;;;;;12.03;82.35;100792.88;4980422;27;45989;-88
2023/12/22 07:10:00;;;;;;;;;1.00;1.00;;;;;12.04;82.51;100799.06;4994333;27;45313;-86
2023/12/22 07:12:25;;;;;;;;;0.67;0.00;;;;;12.08;83.24;100803.25;4996137;27;45650;-88
2023/12/22 07:14:51;;;;;;;;;0.00;0.00;;;;;12.02;83.49;100804.47;4993823;28;44767;-89
2023/12/22 07:17:16;;;;;;;;;0.00;0.00;;;;;11.87;83.79;100783.19;4980967;28;61379;-90
2023/12/22 07:19:41;;;;;;;;;3.00;1.00;;;;;11.96;84.37;100802.16;4988568;28;45370;-92
2023/12/22 07:22:10;;;;;;;;;1.00;1.00;;;;;12.01;84.36;100817.91;4998943;28;45301;-86
2023/12/22 07:24:35;;;;;;;;;1.00;1.00;;;;;11.96;84.39;100811.97;4998308;28;45500;-83
2023/12/22 07:27:01;;;;;;;;;0.00;0.00;;;;;11.89;85.13;100805.28;4997743;27;45397;-85
2023/12/22 07:29:26;;;;;;;;;0.67;0.67;;;;;11.91;84.96;100827.38;5003681;28;45377;-82
2023/12/22 07:31:51;;;;;;;;;1.33;0.00;;;;;11.86;84.71;100803.66;5008781;27;44713;-85
2023/12/22 07:34:18;;;;;;;;;0.00;0.00;;;;;11.90;84.43;100810.53;5010898;28;56124;-87
2023/12/22 07:36:44;;;;;;;;;3.00;1.00;;;;;11.80;84.65;100798.66;5010251;27;45286;-83
2023/12/22 07:39:10;;;;;;;;;1.00;1.00;;;;;11.81;84.35;100800.38;5003711;28;45335;-82
2023/12/22 07:41:36;;;;;;;;;0.00;0.00;;;;;11.91;84.89;100816.72;5000128;28;45320;-85
2023/12/22 07:44:01;;;;;;;;;2.00;2.00;;;;;11.85;84.65;100815.28;5000657;28;45305;-85
2023/12/22 07:46:28;;;;;;;;;0.33;0.33;;;;;11.91;83.95;100824.69;4997967;28;46132;-83
2023/12/22 07:48:53;;;;;;;;;3.33;1.00;;;;;11.94;84.04;100833.38;5012058;28;45393;-85
2023/12/22 07:51:19;;;;;;;;;2.00;2.00;;;;;11.98;83.70;100831.38;5009635;28;45524;-87
2023/12/22 07:53:44;;;;;;;;;1.00;1.00;;;;;11.94;83.47;100822.72;5020425;27;45234;-86
2023/12/22 07:56:10;;;;;;;;;2.00;1.00;;;;;12.08;83.71;100824.56;5022883;28;45475;-87
2023/12/22 07:58:38;;;;;;;;;4.00;1.00;;;;;12.04;83.33;100828.38;5017141;27;45221;-86
2023/12/22 08:01:05;;;;;;;;;2.00;1.00;;;;;11.96;83.29;100817.28;5014316;27;45296;-86
2023/12/22 08:03:30;;;;;;;;;2.33;1.00;;;;;12.04;83.03;100831.03;4986782;28;45616;-85
2023/12/22 08:05:56;;;;;;;;;3.00;1.00;;;;;12.17;83.11;100837.38;4975899;28;45768;-89
2023/12/22 08:08:21;;;;;;;;;1.33;0.00;;;;;12.18;83.23;100849.75;4984190;28;45342;-84
2023/12/22 08:10:46;;;;;;;;;1.00;1.00;;;;;12.17;82.80;100855.19;4996562;27;45412;-82
2023/12/22 08:13:12;;;;;;;;;0.00;0.00;;;;;12.15;83.51;100855.28;4997927;27;45183;-82
2023/12/22 08:15:37;;;;;;;;;0.00;0.00;;;;;12.17;83.68;100860.50;5000059;28;46509;-84
2023/12/22 08:18:03;;;;;;;;;1.33;0.33;;;;;12.11;84.32;100851.06;4998176;28;45360;-83
2023/12/22 08:20:28;;;;;;;;;1.00;1.00;;;;;12.13;84.42;100846.50;5008238;28;45322;-83
2023/12/22 08:22:55;;;;;;;;;0.67;0.33;;;;;12.16;84.45;100865.00;4982885;28;45480;-82
2023/12/22 08:25:21;;;;;;;;;0.67;0.67;;;;;12.01;85.06;100839.22;4986147;28;47235;-82
2023/12/22 08:27:46;;;;;;;;;0.33;0.33;;;;;12.15;84.85;100859.75;4991605;28;45268;-84
2023/12/22 08:30:12;;;;;;;;;1.33;0.00;;;;;12.13;85.05;100858.97;5013931;28;45828;-83
2023/12/22 08:32:38;;;;;;;;;1.00;1.00;;;;;12.11;84.87;100859.06;4995826;28;45707;-85
2023/12/22 08:35:04;;;;;;;;;0.00;0.00;;;;;12.06;84.70;100855.78;5012535;27;45453;-83
2023/12/22 08:37:30;;;;;;;;;1.00;1.00;;;;;12.12;84.37;100852.78;5004893;27;45630;-85
2023/12/22 08:39:55;;;;;;;;;0.00;0.00;;;;;12.05;83.97;100840.75;5008454;27;46539;-85
2023/12/22 08:42:22;;;;;;;;;0.00;0.00;;;;;12.03;83.83;100834.66;5006501;27;45403;-87
2023/12/22 08:44:47;;;;;;;;;0.00;0.00;;;;;12.02;83.79;100832.94;4980041;28;46066;-88
2023/12/22 08:47:13;;;;;;;;;0.00;0.00;;;;;12.06;83.23;100845.13;4990835;28;45427;-85
2023/12/22 08:49:38;;;;;;;;;3.00;0.00;;;;;12.18;83.55;100860.41;4992510;28;45470;-84
2023/12/22 08:52:04;;;;;;;;;2.00;0.00;;;;;12.22;83.04;100867.28;4993601;28;50789;-84
2023/12/22 08:54:30;;;;;;;;;0.67;0.67;;;;;12.20;82.84;100869.19;4982485;28;46270;-83
2023/12/22 08:56:55;;;;;;;;;1.67;0.00;;;;;12.23;82.34;100876.13;4986214;28;45415;-85
2023/12/22 08:59:20;;;;;;;;;0.00;0.00;;;;;12.18;81.85;100868.41;4987520;28;54014;-83
2023/12/22 09:01:45;;;;;;;;;1.33;0.67;;;;;12.19;81.86;100871.94;5004767;27;45225;-81
2023/12/22 09:04:11;;;;;;;;;1.00;0.00;;;;;12.28;81.67;100887.41;4981186;28;69969;-84
2023/12/22 09:06:36;;;;;;;;;2.67;1.00;;;;;12.29;81.63;100876.66;4982139;28;45229;-83
2023/12/22 09:09:03;;;;;;;;;0.00;0.00;;;;;12.32;81.89;100876.47;4993212;28;45544;-84
2023/12/22 09:11:29;;;;;;;;;0.00;0.00;;;;;12.38;81.68;100881.47;5005357;27;45564;-83
2023/12/22 09:13:54;;;;;;;;;2.00;0.00;;;;;12.44;81.25;100879.38;4990708;27;45659;-81
2023/12/22 09:16:23;;;;;;;;;0.33;0.00;;;;;12.33;80.63;100874.66;4994807;27;45446;-84
2023/12/22 09:18:49;;;;;;;;;3.33;0.00;;;;;12.33;80.40;100888.84;4999918;28;45439;-83
2023/12/22 09:21:15;;;;;;;;;1.00;1.00;;;;;12.30;79.78;100878.38;4983660;28;45585;-83
2023/12/22 09:23:44;;;;;;;;;2.33;1.33;;;;;12.18;78.18;100871.09;4976723;28;45688;-83
2023/12/22 09:26:09;;;;;;;;;1.00;1.00;;;;;12.09;79.00;100866.28;4991736;28;45530;-82
2023/12/22 09:28:35;;;;;;;;;0.00;0.00;;;;;12.17;79.55;100882.69;4994859;27;45447;-83
2023/12/22 09:31:00;;;;;;;;;0.00;0.00;;;;;12.25;79.13;100885.78;4991154;27;45491;-84
2023/12/22 09:33:25;;;;;;;;;1.00;1.00;;;;;12.32;78.88;100881.78;4994714;28;45479;-82
2023/12/22 09:35:51;;;;;;;;;2.00;0.00;;;;;12.43;77.79;100899.00;4996273;28;45458;-83
2023/12/22 09:38:16;;;;;;;;;2.00;1.00;;;;;12.49;77.61;100886.13;4996270;28;45566;-83
2023/12/22 09:40:42;;;;;;;;;0.00;0.00;;;;;12.50;77.38;100882.53;4996242;28;45412;-84
2023/12/22 09:43:08;;;;;;;;;0.00;0.00;;;;;12.60;77.63;100893.50;4996068;28;45349;-86
2023/12/22 09:45:34;;;;;;;;;0.67;0.67;;;;;12.71;77.82;100901.72;5011303;28;45248;-86
2023/12/22 09:48:00;;;;;;;;;1.67;1.67;;;;;12.70;77.33;100890.19;4996430;27;45291;-83
2023/12/22 09:50:27;;;;;;;;;1.00;1.00;;;;;12.79;77.47;100907.47;4997067;27;45646;-83
2023/12/22 09:52:52;;;;;;;;;1.00;1.00;;;;;12.86;77.12;100911.47;4997324;27;45583;-80
2023/12/22 09:55:20;;;;;;;;;1.67;0.33;;;;;12.83;77.62;100909.00;5004503;28;45426;-81
2023/12/22 09:57:47;;;;;;;;;1.00;1.00;;;;;12.84;77.63;100883.16;4992658;28;45444;-83
2023/12/22 10:00:15;;;;;;;;;2.33;1.00;;;;;12.80;77.34;100887.84;4993753;27;45419;-82
2023/12/22 10:02:42;;;;;;;;;1.00;1.00;;;;;12.77;77.55;100901.38;4994478;27;46248;-81
2023/12/22 10:05:08;;;;;;;;;1.33;0.00;;;;;12.70;77.57;100900.00;4993434;27;45482;-83
2023/12/22 10:07:35;;;;;;;;;2.00;0.00;;;;;12.78;77.76;100894.22;4993917;28;45866;-82
2023/12/22 10:10:01;;;;;;;;;1.00;1.00;;;;;12.81;77.01;100920.72;4994707;27;45950;-82
2023/12/22 10:12:30;;;;;;;;;1.00;1.00;;;;;12.78;76.78;100895.09;4993953;27;46050;-81
2023/12/22 10:14:56;;;;;;;;;1.33;0.00;;;;;12.70;76.34;100900.88;5000452;28;45767;-80
2023/12/22 10:17:22;;;;;;;;;2.00;0.67;;;;;12.62;76.57;100883.59;4998349;28;45410;-82
2023/12/22 10:19:48;;;;;;;;;5.00;2.00;;;;;12.68;76.62;100896.59;4994608;28;45416;-82
2023/12/22 10:22:13;;;;;;;;;2.00;2.00;;;;;12.76;77.10;100907.66;4995003;28;46223;-83
2023/12/22 10:24:42;;;;;;;;;1.00;1.00;;;;;12.79;76.45;100912.81;5012842;28;50821;-82
2023/12/22 10:27:08;;;;;;;;;0.00;0.00;;;;;12.84;75.99;100902.72;5006607;27;45651;-81
2023/12/22 10:29:34;;;;;;;;;3.00;0.00;;;;;12.73;75.73;100894.47;4994438;27;45469;-83
2023/12/22 10:32:04;;;;;;;;;2.67;0.33;;;;;12.89;75.47;100903.31;5006808;28;45404;-82
2023/12/22 10:34:30;;;;;;;;;1.33;0.00;;;;;13.01;75.67;100907.00;5000640;28;45470;-83
2023/12/22 10:36:56;;;;;;;;;0.00;0.00;;;;;12.95;75.43;100886.03;5002126;27;45830;-82
2023/12/22 10:39:22;;;;;;;;;2.00;0.67;;;;;12.97;74.92;100893.00;4994103;28;45606;-84
2023/12/22 10:41:49;;;;;;;;;0.00;0.00;;;;;13.05;74.90;100891.69;4993669;27;45917;-83
2023/12/22 10:44:15;;;;;;;;;0.00;0.00;;;;;12.94;74.76;100909.22;4990482;28;45287;-81
2023/12/22 10:46:40;;;;;;;;;1.00;1.00;;;;;12.94;75.71;100911.03;4992315;28;45536;-82
2023/12/22 10:49:08;;;;;;;;;1.00;1.00;;;;;12.91;76.43;100912.06;5007957;27;46037;-82
2023/12/22 10:51:33;;;;;;;;;1.33;0.00;;;;;12.90;77.07;100904.16;4988042;28;46209;-83
2023/12/22 10:53:59;;;;;;;;;1.00;1.00;;;;;13.02;77.04;100911.44;4974876;28;45425;-81
2023/12/22 10:56:28;;;;;;;;;1.33;1.33;;;;;13.04;77.24;100901.50;4987927;28;45461;-81
2023/12/22 10:58:53;;;;;;;;;2.00;1.00;;;;;12.98;77.82;100883.19;4992555;28;45630;-81
2023/12/22 11:01:21;;;;;;;;;0.67;0.67;;;;;12.93;77.53;100885.28;4981123;27;46163;-81
2023/12/22 11:03:50;;;;;;;;;1.00;1.00;;;;;12.90;77.92;100889.00;4988442;27;45427;-80
2023/12/22 11:06:16;;;;;;;;;1.00;1.00;;;;;12.87;79.59;100889.16;4993804;28;45416;-81
2023/12/22 11:08:43;;;;;;;;;1.67;1.67;;;;;12.92;79.71;100878.22;4993103;28;45547;-80
2023/12/22 11:11:20;;;;;;;;;1.00;1.00;;;;;12.89;79.27;100868.59;4982131;28;45411;-82
2023/12/22 11:13:47;;;;;;;;;3.33;0.67;;;;;12.95;78.94;100864.69;4973764;28;45350;-80
2023/12/22 11:16:14;;;;;;;;;2.00;1.67;;;;;13.06;79.49;100877.38;4973144;28;45346;-80
2023/12/22 11:18:41;;;;;;;;;1.33;1.33;;;;;12.95;78.69;100865.53;5006101;27;45555;-82
2023/12/22 11:21:09;;;;;;;;;1.33;1.33;;;;;12.95;78.96;100873.56;5039042;27;46146;-85